createdAt,value
2018-11-03T00:01:44.706Z,6.10
2018-11-03T00:04:13.307Z,6.10
2018-11-03T00:06:41.832Z,6.10
2018-11-03T00:09:11.076Z,6.10
2018-11-03T00:11:40.121Z,6.20
2018-11-03T00:14:09.310Z,6.30
2018-11-03T00:16:37.916Z,6.40
2018-11-03T00:19:06.668Z,6.60
2018-11-03T00:21:35.202Z,6.70
2018-11-03T00:24:03.855Z,6.70
2018-11-03T00:26:32.426Z,6.70
2018-11-03T00:29:01.010Z,6.60
2018-11-03T00:31:30.099Z,6.40
2018-11-03T00:33:58.678Z,6.50
2018-11-03T00:36:27.305Z,6.50
2018-11-03T00:38:55.803Z,6.50
2018-11-03T00:41:24.382Z,6.60
2018-11-03T00:43:52.937Z,6.60
2018-11-03T00:46:21.545Z,6.50
2018-11-03T00:48:50.118Z,6.50
2018-11-03T00:51:19.248Z,6.70
2018-11-03T00:53:47.716Z,6.70
2018-11-03T00:56:16.280Z,6.70
2018-11-03T00:58:44.767Z,6.80
2018-11-03T01:01:13.260Z,6.70
2018-11-03T01:03:41.782Z,6.70
2018-11-03T01:06:10.359Z,6.70
2018-11-03T01:08:38.841Z,6.70
2018-11-03T01:11:08.252Z,6.70
2018-11-03T01:13:36.812Z,6.60
2018-11-03T01:16:05.741Z,6.60
2018-11-03T01:18:35.212Z,6.60
2018-11-03T01:21:03.810Z,6.50
2018-11-03T01:23:32.527Z,6.50
2018-11-03T01:26:01.185Z,6.50
2018-11-03T01:28:29.769Z,6.50
2018-11-03T01:30:58.307Z,6.40
2018-11-03T01:33:26.846Z,6.50
2018-11-03T01:35:55.559Z,6.40
2018-11-03T01:38:24.076Z,6.40
2018-11-03T01:40:52.610Z,6.40
2018-11-03T01:43:21.162Z,6.40
2018-11-03T01:45:49.931Z,6.30
2018-11-03T01:48:18.479Z,6.30
2018-11-03T01:50:47.029Z,6.30
2018-11-03T01:53:15.718Z,6.30
2018-11-03T01:55:44.415Z,6.20
2018-11-03T01:58:12.917Z,6.20
2018-11-03T02:00:41.582Z,6.20
2018-11-03T02:03:10.127Z,6.20
2018-11-03T02:05:38.755Z,6.20
2018-11-03T02:08:07.337Z,6.20
2018-11-03T02:10:35.874Z,6.20
2018-11-03T02:13:04.590Z,6.20
2018-11-03T02:15:33.145Z,6.20
2018-11-03T02:18:01.714Z,6.20
2018-11-03T02:20:30.312Z,6.20
2018-11-03T02:22:58.842Z,6.20
2018-11-03T02:25:27.540Z,6.20
2018-11-03T02:27:56.057Z,6.20
2018-11-03T02:30:24.667Z,6.20
2018-11-03T02:32:53.149Z,6.20
2018-11-03T02:35:21.852Z,6.20
2018-11-03T02:37:50.422Z,6.20
2018-11-03T02:40:19.101Z,6.20
2018-11-03T02:42:47.704Z,6.20
2018-11-03T02:45:16.480Z,6.20
2018-11-03T02:47:45.079Z,6.20
2018-11-03T02:50:15.143Z,6.20
2018-11-03T02:52:43.776Z,6.20
2018-11-03T02:55:12.368Z,6.20
2018-11-03T02:57:40.928Z,6.20
2018-11-03T03:00:10.620Z,6.10
2018-11-03T03:02:39.212Z,6.10
2018-11-03T03:05:09.700Z,6.10
2018-11-03T03:07:38.309Z,6.10
2018-11-03T03:10:08.156Z,6.10
2018-11-03T03:12:37.101Z,6.00
2018-11-03T03:15:07.254Z,6.00
2018-11-03T03:17:35.756Z,6.00
2018-11-03T03:20:05.236Z,6.00
2018-11-03T03:22:33.775Z,6.00
2018-11-03T03:25:02.375Z,6.00
2018-11-03T03:27:30.959Z,6.00
2018-11-03T03:29:59.464Z,6.00
2018-11-03T03:32:28.038Z,6.00
2018-11-03T03:34:56.629Z,5.90
2018-11-03T03:37:25.206Z,5.90
2018-11-03T03:39:53.754Z,5.90
2018-11-03T03:42:22.409Z,5.90
2018-11-03T03:44:51.135Z,5.90
2018-11-03T03:47:19.673Z,5.90
2018-11-03T03:49:48.163Z,5.80
2018-11-03T03:52:16.848Z,5.80
2018-11-03T03:54:45.506Z,5.80
2018-11-03T03:57:14.044Z,5.80
2018-11-03T03:59:42.561Z,5.80
2018-11-03T04:02:11.040Z,5.80
2018-11-03T04:04:39.602Z,5.80
2018-11-03T04:07:08.106Z,5.80
2018-11-03T04:09:36.616Z,5.80
2018-11-03T04:12:05.942Z,5.80
2018-11-03T04:14:34.873Z,5.70
2018-11-03T04:17:03.369Z,5.70
2018-11-03T04:19:31.865Z,5.70
2018-11-03T04:22:00.345Z,5.70
2018-11-03T04:24:28.922Z,5.70
2018-11-03T04:26:57.598Z,5.70
2018-11-03T04:29:26.182Z,5.70
2018-11-03T04:31:54.787Z,5.60
2018-11-03T04:34:23.361Z,5.60
2018-11-03T04:36:52.001Z,5.60
2018-11-03T04:39:20.482Z,5.60
2018-11-03T04:41:49.030Z,5.60
2018-11-03T04:44:18.076Z,5.60
2018-11-03T04:46:46.710Z,5.60
2018-11-03T04:49:15.377Z,5.60
2018-11-03T04:51:43.881Z,5.60
2018-11-03T04:54:12.540Z,5.60
2018-11-03T04:56:41.085Z,5.60
2018-11-03T04:59:10.642Z,5.60
2018-11-03T05:01:39.242Z,5.60
2018-11-03T05:04:07.858Z,5.60
2018-11-03T05:06:36.463Z,5.60
2018-11-03T05:09:07.814Z,5.60
2018-11-03T05:11:36.319Z,5.60
2018-11-03T05:14:06.520Z,5.60
2018-11-03T05:16:35.119Z,5.60
2018-11-03T05:19:03.648Z,5.50
2018-11-03T05:21:32.195Z,5.60
2018-11-03T05:24:00.724Z,5.60
2018-11-03T05:26:29.311Z,5.60
2018-11-03T05:28:57.815Z,5.60
2018-11-03T05:31:26.375Z,5.60
2018-11-03T05:33:54.982Z,5.60
2018-11-03T05:36:23.515Z,5.60
2018-11-03T05:38:52.055Z,5.60
2018-11-03T05:41:20.557Z,5.60
2018-11-03T05:43:49.211Z,5.60
2018-11-03T05:46:17.759Z,5.60
2018-11-03T05:48:46.296Z,5.60
2018-11-03T05:51:14.879Z,5.60
2018-11-03T05:53:43.455Z,5.60
2018-11-03T05:56:12.968Z,5.60
2018-11-03T05:58:41.632Z,5.70
2018-11-03T06:01:10.101Z,5.70
2018-11-03T06:03:38.727Z,5.60
2018-11-03T06:06:07.347Z,5.70
2018-11-03T06:08:35.909Z,5.70
2018-11-03T06:11:04.838Z,5.70
2018-11-03T06:13:33.407Z,5.70
2018-11-03T06:16:02.060Z,5.80
2018-11-03T06:18:30.716Z,5.80
2018-11-03T06:20:59.318Z,5.80
2018-11-03T06:23:28.048Z,5.80
2018-11-03T06:25:56.574Z,5.80
2018-11-03T06:28:25.187Z,5.80
2018-11-03T06:33:46.763Z,5.10
2018-11-03T06:36:15.480Z,5.70
2018-11-03T06:38:44.172Z,5.70
2018-11-03T06:41:12.677Z,5.80
2018-11-03T06:43:41.218Z,5.70
2018-11-03T06:46:09.803Z,5.70
2018-11-03T06:48:38.299Z,5.80
2018-11-03T06:51:06.863Z,5.80
2018-11-03T06:53:35.346Z,5.80
2018-11-03T06:56:04.017Z,5.80
2018-11-03T06:58:32.606Z,5.80
2018-11-03T07:01:01.104Z,5.80
2018-11-03T07:03:29.631Z,5.80
2018-11-03T07:05:58.175Z,5.80
2018-11-03T07:08:26.808Z,5.80
2018-11-03T07:10:55.380Z,5.90
2018-11-03T07:13:23.979Z,5.90
2018-11-03T07:15:53.545Z,5.90
2018-11-03T07:18:22.188Z,6.00
2018-11-03T07:20:50.783Z,6.00
2018-11-03T07:23:19.312Z,6.00
2018-11-03T07:25:48.861Z,6.00
2018-11-03T07:28:17.666Z,6.10
2018-11-03T07:30:46.265Z,6.10
2018-11-03T07:33:14.952Z,6.20
2018-11-03T07:35:43.583Z,6.20
2018-11-03T07:38:12.118Z,6.30
2018-11-03T07:40:40.861Z,6.30
2018-11-03T07:43:09.278Z,6.30
2018-11-03T07:45:38.038Z,6.40
2018-11-03T07:48:06.747Z,6.40
2018-11-03T07:50:35.322Z,6.40
2018-11-03T07:53:04.320Z,6.50
2018-11-03T07:55:33.034Z,6.50
2018-11-03T07:58:02.043Z,6.60
2018-11-03T08:00:30.755Z,7.20
2018-11-03T08:02:59.680Z,6.60
2018-11-03T08:05:28.261Z,6.70
2018-11-03T08:07:57.279Z,6.80
2018-11-03T08:10:26.119Z,6.80
2018-11-03T08:12:54.707Z,6.80
2018-11-03T08:15:23.457Z,6.90
2018-11-03T08:17:52.073Z,6.90
2018-11-03T08:20:21.745Z,6.90
2018-11-03T08:22:50.330Z,7.00
2018-11-03T08:25:19.012Z,7.00
2018-11-03T08:27:47.787Z,7.10
2018-11-03T08:30:16.566Z,7.10
2018-11-03T08:32:45.239Z,7.20
2018-11-03T08:35:14.014Z,7.20
2018-11-03T08:37:42.597Z,7.20
2018-11-03T08:40:12.263Z,7.30
2018-11-03T08:42:41.145Z,7.40
2018-11-03T08:45:10.247Z,7.40
2018-11-03T08:47:38.891Z,7.50
2018-11-03T08:50:09.804Z,7.50
2018-11-03T08:52:38.570Z,7.60
2018-11-03T08:55:10.580Z,7.60
2018-11-03T08:57:39.340Z,7.60
2018-11-03T09:00:10.552Z,7.60
2018-11-03T09:02:39.186Z,7.60
2018-11-03T09:05:08.448Z,7.70
2018-11-03T09:07:37.660Z,7.70
2018-11-03T09:10:07.990Z,7.80
2018-11-03T09:12:36.691Z,7.90
2018-11-03T09:15:06.797Z,7.90
2018-11-03T09:17:35.805Z,7.90
2018-11-03T09:20:04.776Z,7.90
2018-11-03T09:22:33.579Z,7.90
2018-11-03T09:25:02.321Z,7.90
2018-11-03T09:27:30.902Z,8.00
2018-11-03T09:29:59.454Z,8.00
2018-11-03T09:32:28.122Z,8.10
2018-11-03T09:34:56.776Z,8.20
2018-11-03T09:37:25.515Z,8.20
2018-11-03T09:39:54.100Z,8.30
2018-11-03T09:42:22.893Z,8.40
2018-11-03T09:44:51.698Z,8.50
2018-11-03T09:47:20.264Z,8.60
2018-11-03T09:49:48.998Z,8.80
2018-11-03T09:52:17.599Z,8.90
2018-11-03T09:54:46.284Z,9.00
2018-11-03T09:57:14.892Z,9.00
2018-11-03T09:59:43.515Z,9.10
2018-11-03T10:02:12.135Z,9.20
2018-11-03T10:04:40.792Z,9.30
2018-11-03T10:07:09.691Z,9.40
2018-11-03T10:09:38.317Z,9.50
2018-11-03T10:12:06.911Z,9.60
2018-11-03T10:14:35.533Z,9.70
2018-11-03T10:17:04.169Z,9.70
2018-11-03T10:19:34.290Z,9.80
2018-11-03T10:22:03.074Z,9.80
2018-11-03T10:24:33.053Z,9.80
2018-11-03T10:27:06.376Z,9.80
2018-11-03T10:29:35.063Z,9.90
2018-11-03T10:32:07.160Z,9.90
2018-11-03T10:34:36.910Z,10.00
2018-11-03T10:37:06.664Z,10.10
2018-11-03T10:39:36.308Z,10.20
2018-11-03T10:42:05.744Z,10.20
2018-11-03T10:44:34.551Z,10.30
2018-11-03T10:47:03.477Z,10.30
2018-11-03T10:49:32.051Z,10.40
2018-11-03T10:52:01.861Z,10.30
2018-11-03T10:54:31.049Z,10.30
2018-11-03T10:56:59.712Z,10.30
2018-11-03T10:59:28.789Z,10.30
2018-11-03T11:02:02.773Z,10.20
2018-11-03T11:04:36.750Z,10.30
2018-11-03T11:07:11.148Z,10.30
2018-11-03T11:09:45.057Z,10.30
2018-11-03T11:12:45.916Z,10.40
2018-11-03T11:15:14.618Z,10.50
2018-11-03T11:17:44.111Z,10.60
2018-11-03T11:20:13.330Z,10.70
2018-11-03T11:22:42.053Z,10.80
2018-11-03T11:25:11.907Z,10.90
2018-11-03T11:27:41.265Z,11.00
2018-11-03T11:30:11.910Z,11.00
2018-11-03T11:32:40.668Z,11.00
2018-11-03T11:35:10.048Z,11.00
2018-11-03T11:37:38.681Z,11.10
2018-11-03T11:40:07.631Z,11.10
2018-11-03T11:42:36.159Z,11.00
2018-11-03T11:45:04.973Z,11.10
2018-11-03T11:47:33.674Z,11.00
2018-11-03T11:50:02.860Z,11.00
2018-11-03T11:52:31.432Z,11.00
2018-11-03T11:55:00.248Z,11.00
2018-11-03T11:57:28.869Z,11.10
2018-11-03T11:59:57.513Z,11.10
2018-11-03T12:02:26.369Z,11.10
2018-11-03T12:04:54.949Z,11.10
2018-11-03T12:07:23.623Z,11.10
2018-11-03T12:09:52.273Z,11.10
2018-11-03T12:12:20.787Z,11.00
2018-11-03T12:14:49.442Z,11.00
2018-11-03T12:17:18.096Z,10.90
2018-11-03T12:19:46.609Z,10.80
2018-11-03T12:22:15.206Z,10.80
2018-11-03T12:24:44.803Z,10.80
2018-11-03T12:27:13.421Z,10.80
2018-11-03T12:29:41.952Z,10.80
2018-11-03T12:32:10.537Z,10.80
2018-11-03T12:34:39.129Z,10.80
2018-11-03T12:37:07.675Z,10.90
2018-11-03T12:39:36.371Z,10.90
2018-11-03T12:42:05.393Z,11.00
2018-11-03T12:44:34.003Z,11.00
2018-11-03T12:47:02.556Z,11.00
2018-11-03T12:49:31.122Z,11.00
2018-11-03T12:51:59.644Z,11.00
2018-11-03T12:54:28.311Z,11.00
2018-11-03T12:56:56.866Z,10.90
2018-11-03T12:59:25.405Z,10.90
2018-11-03T13:01:53.885Z,10.90
2018-11-03T13:04:22.454Z,10.80
2018-11-03T13:06:51.013Z,10.70
2018-11-03T13:09:19.482Z,10.60
2018-11-03T13:11:53.974Z,10.60
2018-11-03T13:14:22.625Z,10.60
2018-11-03T13:16:51.232Z,10.60
2018-11-03T13:19:19.812Z,10.60
2018-11-03T13:21:48.351Z,10.60
2018-11-03T13:24:17.017Z,10.50
2018-11-03T13:26:45.508Z,10.50
2018-11-03T13:29:14.164Z,10.50
2018-11-03T13:31:42.707Z,10.50
2018-11-03T13:34:11.290Z,10.50
2018-11-03T13:36:39.872Z,10.50
2018-11-03T13:39:09.345Z,10.50
2018-11-03T13:41:37.947Z,10.50
2018-11-03T13:44:06.757Z,10.50
2018-11-03T13:46:35.409Z,10.60
2018-11-03T13:49:04.351Z,10.60
2018-11-03T13:51:32.852Z,10.50
2018-11-03T13:54:01.564Z,10.50
2018-11-03T13:56:30.069Z,10.50
2018-11-03T13:58:58.773Z,10.50
2018-11-03T14:01:27.418Z,10.50
2018-11-03T14:03:55.905Z,10.50
2018-11-03T14:06:24.512Z,10.50
2018-11-03T14:08:53.123Z,10.50
2018-11-03T14:11:21.799Z,10.60
2018-11-03T14:13:50.466Z,10.50
2018-11-03T14:16:19.113Z,10.50
2018-11-03T14:18:47.590Z,10.50
2018-11-03T14:21:16.397Z,10.50
2018-11-03T14:23:44.964Z,10.50
2018-11-03T14:26:13.717Z,10.40
2018-11-03T14:28:42.247Z,10.40
2018-11-03T14:31:10.953Z,10.30
2018-11-03T14:33:40.057Z,10.30
2018-11-03T14:36:09.865Z,10.30
2018-11-03T14:38:38.617Z,10.30
2018-11-03T14:41:07.411Z,10.30
2018-11-03T14:43:36.018Z,10.20
2018-11-03T14:46:04.602Z,10.20
2018-11-03T14:48:34.312Z,10.20
2018-11-03T14:51:02.998Z,10.20
2018-11-03T14:53:31.451Z,10.20
2018-11-03T14:56:00.245Z,10.10
2018-11-03T14:58:28.851Z,10.10
2018-11-03T15:00:57.404Z,10.10
2018-11-03T15:03:26.136Z,10.10
2018-11-03T15:05:54.763Z,10.10
2018-11-03T15:08:24.229Z,10.10
2018-11-03T15:10:54.900Z,10.10
2018-11-03T15:13:23.575Z,10.00
2018-11-03T15:15:52.858Z,10.00
2018-11-03T15:18:21.820Z,10.00
2018-11-03T15:20:51.522Z,9.90
2018-11-03T15:23:26.892Z,9.90
2018-11-03T15:25:55.399Z,9.90
2018-11-03T15:28:24.094Z,9.90
2018-11-03T15:30:52.713Z,9.90
2018-11-03T15:33:21.258Z,9.90
2018-11-03T15:35:49.957Z,9.80
2018-11-03T15:38:18.507Z,9.80
2018-11-03T15:40:47.633Z,9.70
2018-11-03T15:43:21.715Z,9.70
2018-11-03T15:45:50.466Z,9.70
2018-11-03T15:48:20.191Z,9.60
2018-11-03T15:50:51.049Z,9.60
2018-11-03T15:53:20.216Z,9.50
2018-11-03T15:55:50.029Z,9.50
2018-11-03T15:58:20.423Z,9.50
2018-11-03T16:00:48.985Z,9.50
2018-11-03T16:03:19.040Z,9.40
2018-11-03T16:05:47.667Z,9.40
2018-11-03T16:08:16.251Z,9.40
2018-11-03T16:10:45.981Z,9.40
2018-11-03T16:13:17.941Z,9.40
2018-11-03T16:15:46.666Z,9.40
2018-11-03T16:18:15.336Z,9.40
2018-11-03T16:20:44.039Z,9.30
2018-11-03T16:23:12.775Z,9.30
2018-11-03T16:25:41.640Z,9.30
2018-11-03T16:28:10.387Z,9.30
2018-11-03T16:30:39.062Z,9.30
2018-11-03T16:33:08.395Z,9.20
2018-11-03T16:35:37.139Z,9.20
2018-11-03T16:38:07.228Z,9.20
2018-11-03T16:40:36.054Z,9.20
2018-11-03T16:43:04.904Z,9.10
2018-11-03T16:45:33.634Z,9.20
2018-11-03T16:48:02.466Z,9.10
2018-11-03T16:50:39.089Z,9.10
2018-11-03T16:53:08.653Z,9.10
2018-11-03T16:55:37.553Z,9.00
2018-11-03T16:58:06.165Z,9.00
2018-11-03T17:00:34.847Z,9.00
2018-11-03T17:03:03.406Z,9.00
2018-11-03T17:05:32.153Z,9.00
2018-11-03T17:08:00.738Z,9.00
2018-11-03T17:10:29.307Z,9.00
2018-11-03T17:12:58.831Z,9.00
2018-11-03T17:15:27.778Z,9.00
2018-11-03T17:17:56.460Z,9.00
2018-11-03T17:20:25.057Z,8.90
2018-11-03T17:22:54.400Z,8.90
2018-11-03T17:25:23.310Z,8.90
2018-11-03T17:27:52.615Z,8.90
2018-11-03T17:30:21.194Z,8.90
2018-11-03T17:32:49.782Z,8.80
2018-11-03T17:35:18.481Z,8.80
2018-11-03T17:37:47.099Z,8.80
2018-11-03T17:40:15.886Z,8.80
2018-11-03T17:42:44.656Z,8.80
2018-11-03T17:45:13.726Z,8.80
2018-11-03T17:47:42.372Z,8.80
2018-11-03T17:50:12.745Z,8.80
2018-11-03T17:52:41.407Z,8.70
2018-11-03T17:55:10.652Z,8.70
2018-11-03T17:57:39.405Z,8.70
2018-11-03T18:00:11.910Z,8.70
2018-11-03T18:02:40.528Z,8.70
2018-11-03T18:05:09.277Z,8.60
2018-11-03T18:07:37.969Z,8.60
2018-11-03T18:10:08.271Z,8.60
2018-11-03T18:12:36.882Z,8.60
2018-11-03T18:15:06.381Z,8.60
2018-11-03T18:17:35.128Z,8.60
2018-11-03T18:20:04.371Z,8.50
2018-11-03T18:22:33.640Z,8.50
2018-11-03T18:25:04.025Z,8.50
2018-11-03T18:27:32.912Z,8.50
2018-11-03T18:30:01.765Z,8.40
2018-11-03T18:32:30.493Z,8.40
2018-11-03T18:34:59.311Z,8.40
2018-11-03T18:37:28.027Z,8.40
2018-11-03T18:39:56.723Z,8.40
2018-11-03T18:42:25.858Z,8.30
2018-11-03T18:44:55.279Z,8.30
2018-11-03T18:47:24.600Z,8.40
2018-11-03T18:49:53.326Z,8.30
2018-11-03T18:52:22.008Z,8.30
2018-11-03T18:54:50.877Z,8.30
2018-11-03T18:57:19.696Z,8.30
2018-11-03T18:59:49.067Z,8.30
2018-11-03T19:02:17.823Z,8.30
2018-11-03T19:04:46.536Z,8.20
2018-11-03T19:07:15.287Z,8.20
2018-11-03T19:09:44.152Z,8.20
2018-11-03T19:12:13.414Z,8.20
2018-11-03T19:14:43.125Z,8.20
2018-11-03T19:17:12.287Z,8.10
2018-11-03T19:19:41.183Z,8.10
2018-11-03T19:22:09.902Z,8.00
2018-11-03T19:24:38.513Z,8.00
2018-11-03T19:27:07.111Z,8.00
2018-11-03T19:29:35.944Z,8.00
2018-11-03T19:32:05.642Z,8.00
2018-11-03T19:34:35.796Z,7.90
2018-11-03T19:37:04.797Z,7.90
2018-11-03T19:39:33.714Z,7.90
2018-11-03T19:42:02.454Z,7.90
2018-11-03T19:44:31.161Z,7.90
2018-11-03T19:47:01.062Z,7.90
2018-11-03T19:49:30.839Z,7.90
2018-11-03T19:51:59.866Z,7.90
2018-11-03T19:54:31.907Z,7.90
2018-11-03T19:57:01.608Z,7.90
2018-11-03T19:59:30.453Z,7.90
2018-11-03T20:01:59.251Z,7.80
2018-11-03T20:04:28.007Z,7.80
2018-11-03T20:06:56.705Z,7.80
2018-11-03T20:09:25.540Z,7.80
2018-11-03T20:11:54.338Z,7.80
2018-11-03T20:14:23.967Z,7.80
2018-11-03T20:16:56.903Z,7.80
2018-11-03T20:19:25.861Z,7.80
2018-11-03T20:21:54.718Z,7.70
2018-11-03T20:24:23.467Z,7.70
2018-11-03T20:26:52.272Z,7.70
2018-11-03T20:29:20.908Z,7.70
2018-11-03T20:31:49.578Z,7.70
2018-11-03T20:34:18.175Z,7.70
2018-11-03T20:36:46.897Z,7.70
2018-11-03T20:39:15.547Z,7.70
2018-11-03T20:41:44.121Z,7.70
2018-11-03T20:44:13.012Z,7.60
2018-11-03T20:46:41.812Z,7.60
2018-11-03T20:49:10.430Z,7.60
2018-11-03T20:51:38.964Z,7.60
2018-11-03T20:54:07.806Z,7.70
2018-11-03T20:56:37.363Z,7.60
2018-11-03T20:59:06.013Z,7.60
2018-11-03T21:01:34.760Z,7.60
2018-11-03T21:04:03.528Z,7.60
2018-11-03T21:06:32.195Z,7.60
2018-11-03T21:09:00.717Z,7.60
2018-11-03T21:11:29.305Z,7.50
2018-11-03T21:13:57.849Z,7.50
2018-11-03T21:16:26.460Z,7.50
2018-11-03T21:18:54.904Z,7.50
2018-11-03T21:21:23.458Z,7.50
2018-11-03T21:23:52.059Z,7.50
2018-11-03T21:26:21.283Z,7.50
2018-11-03T21:28:49.903Z,7.50
2018-11-03T21:31:18.474Z,7.40
2018-11-03T21:33:47.068Z,7.40
2018-11-03T21:36:15.688Z,7.40
2018-11-03T21:38:44.501Z,7.40
2018-11-03T21:41:13.056Z,7.40
2018-11-03T21:43:42.538Z,7.40
2018-11-03T21:46:11.303Z,7.40
2018-11-03T21:48:40.421Z,7.40
2018-11-03T21:51:09.282Z,7.40
2018-11-03T21:53:37.898Z,7.40
2018-11-03T21:56:06.971Z,7.40
2018-11-03T21:58:35.641Z,7.30
2018-11-03T22:01:04.272Z,7.30
2018-11-03T22:03:32.932Z,7.30
2018-11-03T22:06:02.316Z,7.30
2018-11-03T22:08:31.150Z,7.30
2018-11-03T22:10:59.809Z,7.20
2018-11-03T22:13:28.459Z,7.30
2018-11-03T22:15:57.331Z,7.30
2018-11-03T22:18:25.774Z,7.20
2018-11-03T22:20:54.356Z,7.20
2018-11-03T22:23:23.639Z,7.20
2018-11-03T22:25:52.279Z,7.20
2018-11-03T22:28:21.078Z,7.20
2018-11-03T22:30:49.686Z,7.20
2018-11-03T22:33:18.262Z,7.20
2018-11-03T22:35:46.844Z,7.20
2018-11-03T22:38:15.564Z,7.10
2018-11-03T22:40:44.253Z,7.10
2018-11-03T22:43:12.830Z,7.10
2018-11-03T22:45:41.833Z,7.00
2018-11-03T22:48:11.110Z,7.10
2018-11-03T22:50:40.417Z,7.10
2018-11-03T22:53:09.067Z,7.00
2018-11-03T22:55:38.260Z,7.00
2018-11-03T22:58:07.891Z,7.00
2018-11-03T23:00:41.824Z,7.00
2018-11-03T23:03:10.771Z,6.90
2018-11-03T23:05:39.456Z,7.00
2018-11-03T23:08:08.038Z,7.00
2018-11-03T23:10:36.644Z,6.90
2018-11-03T23:13:05.443Z,6.90
2018-11-03T23:15:34.226Z,6.90
2018-11-03T23:18:02.799Z,6.80
2018-11-03T23:20:31.569Z,6.90
2018-11-03T23:23:00.107Z,6.80
2018-11-03T23:25:28.825Z,6.80
2018-11-03T23:27:57.340Z,6.80
2018-11-03T23:30:25.902Z,6.80
2018-11-03T23:32:54.785Z,6.70
2018-11-03T23:35:23.469Z,6.70
2018-11-03T23:37:52.005Z,6.70
2018-11-03T23:40:20.673Z,6.70
2018-11-03T23:42:49.334Z,6.60
2018-11-03T23:45:18.017Z,6.60
2018-11-03T23:47:46.596Z,6.60
2018-11-03T23:50:15.215Z,6.60
2018-11-03T23:52:44.588Z,6.60
2018-11-03T23:55:13.259Z,6.60
2018-11-03T23:57:41.944Z,6.60
